sensor_id;sensor_type;location;lat;lon;timestamp;pressure;altitude;pressure_sealevel;temperature;humidity
13422;BME280;6782;55.904;13.396;2023-05-08T00:00:01;102240.50;;;3.24;100.00
13422;BME280;6782;55.904;13.396;2023-05-08T00:02:29;102241.13;;;3.15;100.00
13422;BME280;6782;55.904;13.396;2023-05-08T00:04:56;102255.88;;;3.14;100.00
13422;BME280;6782;55.904;13.396;2023-05-08T00:07:24;102277.66;;;3.45;100.00
13422;BME280;6782;55.904;13.396;2023-05-08T00:09:51;102267.06;;;3.39;100.00
13422;BME280;6782;55.904;13.396;2023-05-08T00:12:18;102270.75;;;3.47;100.00
13422;BME280;6782;55.904;13.396;2023-05-08T00:14:46;102255.00;;;3.14;100.00
13422;BME280;6782;55.904;13.396;2023-05-08T00:17:14;102263.69;;;3.14;100.00
13422;BME280;6782;55.904;13.396;2023-05-08T00:19:41;102267.22;;;3.16;100.00
13422;BME280;6782;55.904;13.396;2023-05-08T00:22:08;102262.56;;;3.06;100.00
13422;BME280;6782;55.904;13.396;2023-05-08T00:24:35;102278.41;;;3.12;100.00
13422;BME280;6782;55.904;13.396;2023-05-08T00:27:02;102288.94;;;3.15;100.00
13422;BME280;6782;55.904;13.396;2023-05-08T00:29:29;102281.94;;;3.14;100.00
13422;BME280;6782;55.904;13.396;2023-05-08T00:31:58;102288.84;;;3.12;100.00
13422;BME280;6782;55.904;13.396;2023-05-08T00:34:25;102288.25;;;2.94;100.00
13422;BME280;6782;55.904;13.396;2023-05-08T00:36:52;102293.94;;;3.09;100.00
13422;BME280;6782;55.904;13.396;2023-05-08T00:39:19;102303.78;;;3.18;100.00
13422;BME280;6782;55.904;13.396;2023-05-08T00:41:46;102308.81;;;3.12;100.00
13422;BME280;6782;55.904;13.396;2023-05-08T00:44:13;102309.50;;;3.06;100.00
13422;BME280;6782;55.904;13.396;2023-05-08T00:46:41;102310.47;;;3.10;100.00
13422;BME280;6782;55.904;13.396;2023-05-08T00:49:10;102315.59;;;3.07;100.00
13422;BME280;6782;55.904;13.396;2023-05-08T00:51:39;102322.06;;;3.20;100.00
13422;BME280;6782;55.904;13.396;2023-05-08T00:54:06;102327.41;;;3.23;100.00
13422;BME280;6782;55.904;13.396;2023-05-08T00:56:35;102334.88;;;3.39;100.00
13422;BME280;6782;55.904;13.396;2023-05-08T00:59:06;102320.22;;;3.15;100.00
13422;BME280;6782;55.904;13.396;2023-05-08T01:01:35;102332.59;;;3.23;100.00
13422;BME280;6782;55.904;13.396;2023-05-08T01:04:03;102356.22;;;3.55;100.00
13422;BME280;6782;55.904;13.396;2023-05-08T01:06:32;102313.13;;;3.11;100.00
13422;BME280;6782;55.904;13.396;2023-05-08T01:09:01;102330.72;;;3.18;100.00
13422;BME280;6782;55.904;13.396;2023-05-08T01:11:34;102327.09;;;3.13;100.00
13422;BME280;6782;55.904;13.396;2023-05-08T01:14:11;102340.28;;;3.18;100.00
13422;BME280;6782;55.904;13.396;2023-05-08T01:16:44;102346.19;;;3.12;100.00
13422;BME280;6782;55.904;13.396;2023-05-08T01:19:31;102344.63;;;3.17;100.00
13422;BME280;6782;55.904;13.396;2023-05-08T01:22:23;102339.34;;;2.89;100.00
13422;BME280;6782;55.904;13.396;2023-05-08T01:25:26;102320.16;;;2.62;100.00
13422;BME280;6782;55.904;13.396;2023-05-08T01:31:11;102342.03;;;2.42;100.00
13422;BME280;6782;55.904;13.396;2023-05-08T01:33:48;102367.66;;;2.80;100.00
13422;BME280;6782;55.904;13.396;2023-05-08T01:36:22;102383.31;;;2.80;100.00
13422;BME280;6782;55.904;13.396;2023-05-08T01:38:54;102367.78;;;2.83;100.00
13422;BME280;6782;55.904;13.396;2023-05-08T01:41:26;102393.13;;;2.87;100.00
13422;BME280;6782;55.904;13.396;2023-05-08T01:44:05;102400.22;;;2.93;100.00
13422;BME280;6782;55.904;13.396;2023-05-08T01:46:36;102391.81;;;3.00;100.00
13422;BME280;6782;55.904;13.396;2023-05-08T01:49:07;102400.00;;;3.10;100.00
13422;BME280;6782;55.904;13.396;2023-05-08T01:51:39;102382.00;;;2.93;100.00
13422;BME280;6782;55.904;13.396;2023-05-08T01:54:10;102382.38;;;2.78;100.00
13422;BME280;6782;55.904;13.396;2023-05-08T01:56:42;102402.69;;;2.88;100.00
13422;BME280;6782;55.904;13.396;2023-05-08T01:59:13;102384.44;;;2.63;100.00
13422;BME280;6782;55.904;13.396;2023-05-08T02:01:43;102391.31;;;2.61;100.00
13422;BME280;6782;55.904;13.396;2023-05-08T02:04:13;102405.94;;;2.81;100.00
13422;BME280;6782;55.904;13.396;2023-05-08T02:06:41;102396.72;;;2.67;100.00
13422;BME280;6782;55.904;13.396;2023-05-08T02:09:09;102379.22;;;2.38;100.00
13422;BME280;6782;55.904;13.396;2023-05-08T02:11:38;102406.38;;;2.70;100.00
13422;BME280;6782;55.904;13.396;2023-05-08T02:14:07;102399.97;;;2.60;100.00
13422;BME280;6782;55.904;13.396;2023-05-08T02:16:36;102403.03;;;2.72;100.00
13422;BME280;6782;55.904;13.396;2023-05-08T02:19:06;102396.31;;;2.55;100.00
13422;BME280;6782;55.904;13.396;2023-05-08T02:21:36;102360.09;;;2.14;100.00
13422;BME280;6782;55.904;13.396;2023-05-08T02:24:05;102377.50;;;2.15;100.00
13422;BME280;6782;55.904;13.396;2023-05-08T02:26:33;102369.44;;;2.09;100.00
13422;BME280;6782;55.904;13.396;2023-05-08T02:29:01;102394.31;;;2.48;100.00
13422;BME280;6782;55.904;13.396;2023-05-08T02:31:29;102396.59;;;2.39;100.00
13422;BME280;6782;55.904;13.396;2023-05-08T02:33:58;102388.97;;;2.20;100.00
13422;BME280;6782;55.904;13.396;2023-05-08T02:36:25;102398.31;;;2.15;100.00
13422;BME280;6782;55.904;13.396;2023-05-08T02:38:57;102408.22;;;2.25;100.00
13422;BME280;6782;55.904;13.396;2023-05-08T02:41:26;102402.47;;;2.10;100.00
13422;BME280;6782;55.904;13.396;2023-05-08T02:43:55;102414.44;;;2.28;100.00
13422;BME280;6782;55.904;13.396;2023-05-08T02:46:26;102424.56;;;2.44;100.00
13422;BME280;6782;55.904;13.396;2023-05-08T02:48:59;102434.44;;;2.53;100.00
13422;BME280;6782;55.904;13.396;2023-05-08T02:51:32;102418.25;;;2.38;100.00
13422;BME280;6782;55.904;13.396;2023-05-08T02:54:09;102454.38;;;2.76;100.00
13422;BME280;6782;55.904;13.396;2023-05-08T02:56:39;102436.78;;;2.69;100.00
13422;BME280;6782;55.904;13.396;2023-05-08T02:59:19;102445.94;;;2.83;100.00
13422;BME280;6782;55.904;13.396;2023-05-08T03:01:51;102425.03;;;2.57;100.00
13422;BME280;6782;55.904;13.396;2023-05-08T03:04:24;102429.00;;;2.47;100.00
13422;BME280;6782;55.904;13.396;2023-05-08T03:06:55;102417.13;;;2.31;100.00
13422;BME280;6782;55.904;13.396;2023-05-08T03:09:27;102421.69;;;2.37;100.00
13422;BME280;6782;55.904;13.396;2023-05-08T03:12:00;102422.34;;;2.55;100.00
13422;BME280;6782;55.904;13.396;2023-05-08T03:14:31;102427.25;;;2.46;100.00
13422;BME280;6782;55.904;13.396;2023-05-08T03:17:05;102420.75;;;2.35;100.00
13422;BME280;6782;55.904;13.396;2023-05-08T03:19:35;102445.16;;;2.62;100.00
13422;BME280;6782;55.904;13.396;2023-05-08T03:22:04;102451.03;;;2.80;100.00
13422;BME280;6782;55.904;13.396;2023-05-08T03:24:35;102443.84;;;2.73;100.00
13422;BME280;6782;55.904;13.396;2023-05-08T03:27:04;102434.44;;;2.53;100.00
13422;BME280;6782;55.904;13.396;2023-05-08T03:29:32;102452.81;;;2.81;100.00
13422;BME280;6782;55.904;13.396;2023-05-08T03:32:01;102477.03;;;3.28;100.00
13422;BME280;6782;55.904;13.396;2023-05-08T03:34:29;102488.09;;;3.46;100.00
13422;BME280;6782;55.904;13.396;2023-05-08T03:36:57;102504.97;;;4.10;100.00
13422;BME280;6782;55.904;13.396;2023-05-08T03:39:24;102477.31;;;3.89;100.00
13422;BME280;6782;55.904;13.396;2023-05-08T03:41:54;102461.84;;;3.68;100.00
13422;BME280;6782;55.904;13.396;2023-05-08T03:44:22;102505.66;;;4.61;100.00
13422;BME280;6782;55.904;13.396;2023-05-08T03:46:51;102535.31;;;5.91;100.00
13422;BME280;6782;55.904;13.396;2023-05-08T03:49:22;102496.19;;;5.97;100.00
13422;BME280;6782;55.904;13.396;2023-05-08T03:51:52;102496.56;;;6.53;100.00
13422;BME280;6782;55.904;13.396;2023-05-08T03:54:19;102440.13;;;6.28;100.00
13422;BME280;6782;55.904;13.396;2023-05-08T03:56:54;102390.72;;;6.04;100.00
13422;BME280;6782;55.904;13.396;2023-05-08T03:59:27;102389.53;;;6.30;100.00
13422;BME280;6782;55.904;13.396;2023-05-08T04:01:59;102356.22;;;6.25;100.00
13422;BME280;6782;55.904;13.396;2023-05-08T04:04:37;102363.06;;;6.62;100.00
13422;BME280;6782;55.904;13.396;2023-05-08T04:07:09;102342.78;;;7.01;100.00
13422;BME280;6782;55.904;13.396;2023-05-08T04:09:42;102362.56;;;7.93;100.00
13422;BME280;6782;55.904;13.396;2023-05-08T04:12:17;102302.06;;;7.89;100.00
13422;BME280;6782;55.904;13.396;2023-05-08T04:14:49;102289.16;;;8.05;100.00
13422;BME280;6782;55.904;13.396;2023-05-08T04:17:22;102264.94;;;8.31;100.00
13422;BME280;6782;55.904;13.396;2023-05-08T04:19:59;102161.47;;;7.41;100.00
13422;BME280;6782;55.904;13.396;2023-05-08T04:22:28;102160.00;;;6.99;100.00
13422;BME280;6782;55.904;13.396;2023-05-08T04:24:59;102148.34;;;6.77;100.00
13422;BME280;6782;55.904;13.396;2023-05-08T04:27:29;102121.91;;;6.08;100.00
13422;BME280;6782;55.904;13.396;2023-05-08T04:29:57;102103.66;;;5.64;100.00
13422;BME280;6782;55.904;13.396;2023-05-08T04:32:26;102098.41;;;5.18;100.00
13422;BME280;6782;55.904;13.396;2023-05-08T04:34:54;102129.47;;;5.04;100.00
13422;BME280;6782;55.904;13.396;2023-05-08T04:37:23;102179.72;;;5.30;100.00
13422;BME280;6782;55.904;13.396;2023-05-08T04:39:51;102185.59;;;5.19;100.00
13422;BME280;6782;55.904;13.396;2023-05-08T04:42:19;102193.34;;;5.16;100.00
13422;BME280;6782;55.904;13.396;2023-05-08T04:44:49;102216.00;;;5.15;100.00
13422;BME280;6782;55.904;13.396;2023-05-08T04:47:17;102225.63;;;5.16;100.00
13422;BME280;6782;55.904;13.396;2023-05-08T04:49:44;102231.69;;;5.15;100.00
13422;BME280;6782;55.904;13.396;2023-05-08T04:52:12;102267.94;;;5.37;100.00
13422;BME280;6782;55.904;13.396;2023-05-08T04:54:56;102270.84;;;5.49;100.00
13422;BME280;6782;55.904;13.396;2023-05-08T04:57:23;102293.78;;;5.62;100.00
13422;BME280;6782;55.904;13.396;2023-05-08T04:59:52;102297.44;;;5.70;100.00
13422;BME280;6782;55.904;13.396;2023-05-08T05:02:20;102320.50;;;5.87;100.00
13422;BME280;6782;55.904;13.396;2023-05-08T05:04:47;102315.28;;;5.87;100.00
13422;BME280;6782;55.904;13.396;2023-05-08T05:07:15;102327.78;;;6.00;100.00
13422;BME280;6782;55.904;13.396;2023-05-08T05:09:43;102358.09;;;6.32;100.00
13422;BME280;6782;55.904;13.396;2023-05-08T05:12:10;102360.13;;;6.45;100.00
13422;BME280;6782;55.904;13.396;2023-05-08T05:14:37;102382.41;;;6.68;100.00
13422;BME280;6782;55.904;13.396;2023-05-08T05:17:06;102382.66;;;6.80;100.00
13422;BME280;6782;55.904;13.396;2023-05-08T05:19:33;102389.16;;;7.02;100.00
13422;BME280;6782;55.904;13.396;2023-05-08T05:22:01;102397.47;;;7.28;100.00
13422;BME280;6782;55.904;13.396;2023-05-08T05:24:27;102387.91;;;7.33;100.00
13422;BME280;6782;55.904;13.396;2023-05-08T05:26:55;102404.00;;;7.54;100.00
13422;BME280;6782;55.904;13.396;2023-05-08T05:29:22;102415.69;;;7.76;100.00
13422;BME280;6782;55.904;13.396;2023-05-08T05:31:48;102398.94;;;7.66;100.00
13422;BME280;6782;55.904;13.396;2023-05-08T05:34:17;102406.19;;;7.82;100.00
13422;BME280;6782;55.904;13.396;2023-05-08T05:36:45;102407.28;;;7.98;100.00
13422;BME280;6782;55.904;13.396;2023-05-08T05:39:12;102399.56;;;8.11;100.00
13422;BME280;6782;55.904;13.396;2023-05-08T05:41:40;102394.31;;;8.08;100.00
13422;BME280;6782;55.904;13.396;2023-05-08T05:44:09;102385.47;;;8.03;100.00
13422;BME280;6782;55.904;13.396;2023-05-08T05:46:36;102393.56;;;8.20;100.00
13422;BME280;6782;55.904;13.396;2023-05-08T05:49:04;102387.47;;;8.23;100.00
13422;BME280;6782;55.904;13.396;2023-05-08T05:51:33;102374.25;;;8.18;100.00
13422;BME280;6782;55.904;13.396;2023-05-08T05:54:00;102372.63;;;8.26;100.00
13422;BME280;6782;55.904;13.396;2023-05-08T05:56:46;102370.03;;;8.28;100.00
13422;BME280;6782;55.904;13.396;2023-05-08T05:59:31;102356.94;;;8.29;100.00
13422;BME280;6782;55.904;13.396;2023-05-08T06:02:16;102357.91;;;8.39;100.00
13422;BME280;6782;55.904;13.396;2023-05-08T06:05:05;102364.22;;;8.56;100.00
13422;BME280;6782;55.904;13.396;2023-05-08T06:07:55;102363.63;;;8.84;100.00
13422;BME280;6782;55.904;13.396;2023-05-08T06:10:42;102364.69;;;9.01;100.00
13422;BME280;6782;55.904;13.396;2023-05-08T06:13:29;102356.81;;;9.07;100.00
13422;BME280;6782;55.904;13.396;2023-05-08T06:16:17;102324.25;;;8.93;100.00
13422;BME280;6782;55.904;13.396;2023-05-08T06:19:05;102328.75;;;9.09;100.00
13422;BME280;6782;55.904;13.396;2023-05-08T06:21:53;102331.44;;;9.17;100.00
13422;BME280;6782;55.904;13.396;2023-05-08T06:24:42;102310.44;;;9.21;100.00
13422;BME280;6782;55.904;13.396;2023-05-08T06:27:29;102314.91;;;9.31;100.00
13422;BME280;6782;55.904;13.396;2023-05-08T06:30:16;102291.19;;;9.27;100.00
13422;BME280;6782;55.904;13.396;2023-05-08T06:33:03;102294.84;;;9.52;100.00
13422;BME280;6782;55.904;13.396;2023-05-08T06:35:50;102294.94;;;9.71;100.00
13422;BME280;6782;55.904;13.396;2023-05-08T06:38:38;102290.63;;;9.90;100.00
13422;BME280;6782;55.904;13.396;2023-05-08T06:41:26;102258.06;;;9.76;100.00
13422;BME280;6782;55.904;13.396;2023-05-08T06:44:14;102272.25;;;10.09;100.00
13422;BME280;6782;55.904;13.396;2023-05-08T06:47:01;102241.56;;;10.16;100.00
13422;BME280;6782;55.904;13.396;2023-05-08T06:49:48;102236.31;;;10.28;100.00
13422;BME280;6782;55.904;13.396;2023-05-08T06:52:36;102245.13;;;10.54;100.00
13422;BME280;6782;55.904;13.396;2023-05-08T06:55:23;102226.66;;;10.83;100.00
13422;BME280;6782;55.904;13.396;2023-05-08T06:58:12;102192.38;;;10.73;100.00
13422;BME280;6782;55.904;13.396;2023-05-08T07:00:59;102151.03;;;10.67;100.00
13422;BME280;6782;55.904;13.396;2023-05-08T07:03:47;102167.69;;;10.95;100.00
13422;BME280;6782;55.904;13.396;2023-05-08T07:06:34;102157.97;;;11.19;100.00
13422;BME280;6782;55.904;13.396;2023-05-08T07:09:21;102119.19;;;11.29;100.00
13422;BME280;6782;55.904;13.396;2023-05-08T07:12:08;102107.56;;;11.60;100.00
13422;BME280;6782;55.904;13.396;2023-05-08T07:14:57;102054.69;;;11.65;100.00
13422;BME280;6782;55.904;13.396;2023-05-08T07:17:45;102008.88;;;11.64;100.00
13422;BME280;6782;55.904;13.396;2023-05-08T07:20:32;101956.88;;;11.68;100.00
13422;BME280;6782;55.904;13.396;2023-05-08T07:23:20;101961.00;;;12.01;100.00
13422;BME280;6782;55.904;13.396;2023-05-08T07:26:07;101873.03;;;11.88;100.00
13422;BME280;6782;55.904;13.396;2023-05-08T07:28:54;101880.50;;;12.27;100.00
13422;BME280;6782;55.904;13.396;2023-05-08T07:31:43;101754.66;;;12.10;100.00
13422;BME280;6782;55.904;13.396;2023-05-08T07:34:32;101740.16;;;12.36;100.00
13422;BME280;6782;55.904;13.396;2023-05-08T07:37:21;101666.63;;;12.58;100.00
13422;BME280;6782;55.904;13.396;2023-05-08T07:40:09;101474.75;;;12.37;100.00
13422;BME280;6782;55.904;13.396;2023-05-08T07:42:56;101487.28;;;12.72;100.00
13422;BME280;6782;55.904;13.396;2023-05-08T07:45:44;101363.63;;;12.77;100.00
13422;BME280;6782;55.904;13.396;2023-05-08T07:48:32;101293.63;;;12.90;100.00
13422;BME280;6782;55.904;13.396;2023-05-08T07:51:19;101221.47;;;13.17;100.00
13422;BME280;6782;55.904;13.396;2023-05-08T07:54:06;101123.25;;;13.25;100.00
13422;BME280;6782;55.904;13.396;2023-05-08T07:56:53;101053.09;;;13.40;100.00
13422;BME280;6782;55.904;13.396;2023-05-08T07:59:41;100991.47;;;13.61;100.00
13422;BME280;6782;55.904;13.396;2023-05-08T08:02:28;100839.47;;;13.63;100.00
13422;BME280;6782;55.904;13.396;2023-05-08T08:05:17;100785.25;;;13.72;100.00
13422;BME280;6782;55.904;13.396;2023-05-08T08:08:04;100868.00;;;14.05;100.00
13422;BME280;6782;55.904;13.396;2023-05-08T08:10:51;100857.59;;;14.23;100.00
13422;BME280;6782;55.904;13.396;2023-05-08T08:13:38;100678.84;;;14.27;100.00
13422;BME280;6782;55.904;13.396;2023-05-08T08:16:25;100579.75;;;14.28;100.00
13422;BME280;6782;55.904;13.396;2023-05-08T08:19:12;100578.78;;;14.53;100.00
13422;BME280;6782;55.904;13.396;2023-05-08T08:22:01;100570.03;;;14.71;100.00
13422;BME280;6782;55.904;13.396;2023-05-08T08:24:49;100242.03;;;14.65;100.00
13422;BME280;6782;55.904;13.396;2023-05-08T08:27:36;100231.72;;;14.95;100.00
13422;BME280;6782;55.904;13.396;2023-05-08T08:30:23;100112.84;;;15.17;100.00
13422;BME280;6782;55.904;13.396;2023-05-08T08:33:10;99770.38;;;15.45;100.00
13422;BME280;6782;55.904;13.396;2023-05-08T08:35:58;99171.94;;;15.67;93.73
13422;BME280;6782;55.904;13.396;2023-05-08T08:38:47;98578.59;;;15.54;86.91
13422;BME280;6782;55.904;13.396;2023-05-08T08:41:34;98394.06;;;15.69;83.36
13422;BME280;6782;55.904;13.396;2023-05-08T08:44:21;98233.88;;;15.57;81.29
13422;BME280;6782;55.904;13.396;2023-05-08T08:47:09;101556.22;;;15.79;81.11
13422;BME280;6782;55.904;13.396;2023-05-08T08:49:58;101614.22;;;15.66;78.31
13422;BME280;6782;55.904;13.396;2023-05-08T08:53:04;101730.53;;;15.91;79.26
13422;BME280;6782;55.904;13.396;2023-05-08T08:55:57;101723.72;;;16.11;77.98
13422;BME280;6782;55.904;13.396;2023-05-08T08:58:50;101779.00;;;16.31;77.19
13422;BME280;6782;55.904;13.396;2023-05-08T09:01:40;101745.97;;;16.09;74.51
13422;BME280;6782;55.904;13.396;2023-05-08T09:04:30;101821.41;;;16.37;75.35
13422;BME280;6782;55.904;13.396;2023-05-08T09:07:17;101788.50;;;16.40;74.45
13422;BME280;6782;55.904;13.396;2023-05-08T09:10:05;101784.25;;;16.62;73.30
13422;BME280;6782;55.904;13.396;2023-05-08T09:12:54;101810.47;;;16.46;74.16
13422;BME280;6782;55.904;13.396;2023-05-08T09:15:41;101755.50;;;16.45;72.00
13422;BME280;6782;55.904;13.396;2023-05-08T09:18:28;101796.41;;;16.41;72.76
13422;BME280;6782;55.904;13.396;2023-05-08T09:21:15;101886.13;;;16.41;74.22
13422;BME280;6782;55.904;13.396;2023-05-08T09:24:03;101890.72;;;16.34;74.38
13422;BME280;6782;55.904;13.396;2023-05-08T09:26:51;101986.19;;;16.80;76.37
13422;BME280;6782;55.904;13.396;2023-05-08T09:29:57;101890.47;;;16.43;75.17
13422;BME280;6782;55.904;13.396;2023-05-08T09:32:45;101964.91;;;16.46;77.25
13422;BME280;6782;55.904;13.396;2023-05-08T09:35:34;101827.63;;;16.38;73.64
13422;BME280;6782;55.904;13.396;2023-05-08T09:38:35;101898.88;;;16.60;75.44
13422;BME280;6782;55.904;13.396;2023-05-08T09:41:23;101937.47;;;16.76;75.36
13422;BME280;6782;55.904;13.396;2023-05-08T09:44:11;101920.91;;;16.95;75.12
13422;BME280;6782;55.904;13.396;2023-05-08T09:47:13;101844.81;;;17.12;72.61
13422;BME280;6782;55.904;13.396;2023-05-08T09:50:01;101859.53;;;17.24;72.83
13422;BME280;6782;55.904;13.396;2023-05-08T09:52:50;101872.91;;;17.22;73.21
13422;BME280;6782;55.904;13.396;2023-05-08T09:55:46;101838.13;;;17.51;71.40
13422;BME280;6782;55.904;13.396;2023-05-08T09:58:37;101756.25;;;17.29;68.60
13422;BME280;6782;55.904;13.396;2023-05-08T10:01:30;101724.28;;;17.03;67.26
13422;BME280;6782;55.904;13.396;2023-05-08T10:04:30;101837.78;;;17.36;68.29
13422;BME280;6782;55.904;13.396;2023-05-08T10:07:26;101775.63;;;17.34;66.47
13422;BME280;6782;55.904;13.396;2023-05-08T10:10:13;101716.97;;;17.34;64.64
13422;BME280;6782;55.904;13.396;2023-05-08T10:13:00;101900.38;;;17.78;67.68
13422;BME280;6782;55.904;13.396;2023-05-08T10:15:53;101758.34;;;17.70;64.67
13422;BME280;6782;55.904;13.396;2023-05-08T10:18:45;101737.59;;;17.78;60.58
13422;BME280;6782;55.904;13.396;2023-05-08T10:21:35;101699.59;;;17.47;58.62
13422;BME280;6782;55.904;13.396;2023-05-08T10:24:26;101683.66;;;17.21;57.50
13422;BME280;6782;55.904;13.396;2023-05-08T10:27:16;101908.38;;;18.03;60.69
13422;BME280;6782;55.904;13.396;2023-05-08T10:30:08;101838.66;;;18.12;59.22
13422;BME280;6782;55.904;13.396;2023-05-08T10:32:57;101798.53;;;18.13;56.27
13422;BME280;6782;55.904;13.396;2023-05-08T10:35:47;101792.94;;;18.43;55.12
13422;BME280;6782;55.904;13.396;2023-05-08T10:38:37;101735.72;;;17.80;52.49
13422;BME280;6782;55.904;13.396;2023-05-08T10:41:26;101852.88;;;17.88;53.51
13422;BME280;6782;55.904;13.396;2023-05-08T10:44:14;101966.19;;;18.29;54.26
13422;BME280;6782;55.904;13.396;2023-05-08T10:47:08;101892.88;;;17.89;52.27
13422;BME280;6782;55.904;13.396;2023-05-08T10:50:09;101947.75;;;18.23;52.91
13422;BME280;6782;55.904;13.396;2023-05-08T10:53:06;101896.19;;;18.21;52.09
13422;BME280;6782;55.904;13.396;2023-05-08T10:55:57;101947.75;;;18.47;52.67
13422;BME280;6782;55.904;13.396;2023-05-08T10:58:44;101916.06;;;18.61;51.70
13422;BME280;6782;55.904;13.396;2023-05-08T11:01:41;101888.19;;;18.21;50.38
13422;BME280;6782;55.904;13.396;2023-05-08T11:04:28;101976.13;;;18.25;51.25
13422;BME280;6782;55.904;13.396;2023-05-08T11:07:15;102039.16;;;18.80;52.24
13422;BME280;6782;55.904;13.396;2023-05-08T11:10:06;101957.94;;;18.61;50.86
13422;BME280;6782;55.904;13.396;2023-05-08T11:13:00;101966.66;;;18.89;50.76
13422;BME280;6782;55.904;13.396;2023-05-08T11:15:49;101972.38;;;19.25;49.57
13422;BME280;6782;55.904;13.396;2023-05-08T11:18:36;101899.94;;;18.86;48.38
13422;BME280;6782;55.904;13.396;2023-05-08T11:21:24;101947.56;;;18.98;48.68
13422;BME280;6782;55.904;13.396;2023-05-08T11:24:14;101909.50;;;18.92;47.62
13422;BME280;6782;55.904;13.396;2023-05-08T11:27:02;101925.94;;;19.04;47.71
13422;BME280;6782;55.904;13.396;2023-05-08T11:33:19;101974.06;;;19.04;47.04
13422;BME280;6782;55.904;13.396;2023-05-08T11:36:13;101992.00;;;18.79;46.75
13422;BME280;6782;55.904;13.396;2023-05-08T11:39:05;102029.19;;;19.08;46.32
13422;BME280;6782;55.904;13.396;2023-05-08T11:41:54;102126.75;;;19.21;47.69
13422;BME280;6782;55.904;13.396;2023-05-08T11:44:41;102112.47;;;19.22;47.37
13422;BME280;6782;55.904;13.396;2023-05-08T11:47:32;102100.84;;;19.47;46.08
13422;BME280;6782;55.904;13.396;2023-05-08T11:50:25;102122.69;;;19.34;45.63
13422;BME280;6782;55.904;13.396;2023-05-08T11:53:12;102118.81;;;18.95;43.64
13422;BME280;6782;55.904;13.396;2023-05-08T11:55:59;102165.50;;;18.85;44.32
13422;BME280;6782;55.904;13.396;2023-05-08T11:58:47;102202.41;;;19.25;44.80
13422;BME280;6782;55.904;13.396;2023-05-08T12:01:34;102137.19;;;19.04;42.81
13422;BME280;6782;55.904;13.396;2023-05-08T12:04:22;102130.09;;;19.03;41.77
13422;BME280;6782;55.904;13.396;2023-05-08T12:07:10;102157.34;;;19.14;42.74
13422;BME280;6782;55.904;13.396;2023-05-08T12:10:00;102148.06;;;19.00;42.38
13422;BME280;6782;55.904;13.396;2023-05-08T12:12:47;102131.94;;;19.03;41.69
13422;BME280;6782;55.904;13.396;2023-05-08T12:15:34;102179.19;;;19.02;42.76
13422;BME280;6782;55.904;13.396;2023-05-08T12:18:23;102231.69;;;19.29;43.47
13422;BME280;6782;55.904;13.396;2023-05-08T12:21:11;102200.22;;;19.11;43.49
13422;BME280;6782;55.904;13.396;2023-05-08T12:24:04;102233.84;;;19.68;44.12
13422;BME280;6782;55.904;13.396;2023-05-08T12:26:53;102122.19;;;19.00;41.97
13422;BME280;6782;55.904;13.396;2023-05-08T12:29:43;102169.41;;;18.77;42.60
13422;BME280;6782;55.904;13.396;2023-05-08T12:32:31;102156.22;;;18.95;42.21
13422;BME280;6782;55.904;13.396;2023-05-08T12:35:20;102198.72;;;19.04;43.52
13422;BME280;6782;55.904;13.396;2023-05-08T12:38:08;102138.88;;;18.57;42.50
13422;BME280;6782;55.904;13.396;2023-05-08T12:41:01;102182.88;;;18.98;43.29
13422;BME280;6782;55.904;13.396;2023-05-08T12:43:49;102215.44;;;19.34;43.09
13422;BME280;6782;55.904;13.396;2023-05-08T12:46:45;102179.06;;;19.05;42.83
13422;BME280;6782;55.904;13.396;2023-05-08T12:49:32;102192.50;;;19.76;42.49
13422;BME280;6782;55.904;13.396;2023-05-08T12:52:22;102193.19;;;20.03;42.09
13422;BME280;6782;55.904;13.396;2023-05-08T12:55:23;102164.16;;;19.48;41.68
13422;BME280;6782;55.904;13.396;2023-05-08T12:58:13;102171.88;;;19.07;42.61
13422;BME280;6782;55.904;13.396;2023-05-08T13:01:05;102183.09;;;18.92;42.93
13422;BME280;6782;55.904;13.396;2023-05-08T13:03:54;102161.00;;;18.87;42.29
13422;BME280;6782;55.904;13.396;2023-05-08T13:06:41;102148.19;;;18.97;41.88
13422;BME280;6782;55.904;13.396;2023-05-08T13:09:29;102197.19;;;19.47;42.79
13422;BME280;6782;55.904;13.396;2023-05-08T13:12:16;102218.50;;;19.73;43.49
13422;BME280;6782;55.904;13.396;2023-05-08T13:15:05;102122.91;;;19.75;41.00
13422;BME280;6782;55.904;13.396;2023-05-08T13:17:53;102189.03;;;19.96;42.22
13422;BME280;6782;55.904;13.396;2023-05-08T13:20:40;102131.72;;;19.78;41.20
13422;BME280;6782;55.904;13.396;2023-05-08T13:23:27;102130.50;;;19.87;40.84
13422;BME280;6782;55.904;13.396;2023-05-08T13:26:15;102131.03;;;20.17;40.43
13422;BME280;6782;55.904;13.396;2023-05-08T13:29:02;102124.06;;;20.34;39.53
13422;BME280;6782;55.904;13.396;2023-05-08T13:31:50;102132.53;;;20.45;39.85
13422;BME280;6782;55.904;13.396;2023-05-08T13:34:38;102103.75;;;20.07;39.64
13422;BME280;6782;55.904;13.396;2023-05-08T13:37:25;102133.91;;;20.12;40.04
13422;BME280;6782;55.904;13.396;2023-05-08T13:40:12;102094.19;;;20.23;39.30
13422;BME280;6782;55.904;13.396;2023-05-08T13:42:59;102072.84;;;20.20;38.44
13422;BME280;6782;55.904;13.396;2023-05-08T13:45:47;102084.47;;;19.99;38.99
13422;BME280;6782;55.904;13.396;2023-05-08T13:48:35;102154.81;;;20.26;40.38
13422;BME280;6782;55.904;13.396;2023-05-08T13:51:22;102120.88;;;20.03;39.99
13422;BME280;6782;55.904;13.396;2023-05-08T13:54:11;102169.06;;;20.05;40.90
13422;BME280;6782;55.904;13.396;2023-05-08T13:56:58;102204.38;;;20.79;40.97
13422;BME280;6782;55.904;13.396;2023-05-08T13:59:45;102102.16;;;20.67;39.42
13422;BME280;6782;55.904;13.396;2023-05-08T14:02:33;102096.66;;;20.90;38.16